Flight Track Log - Related Links

Times and Time Zones

All times are in EDT time to prevent confusion due to time zone crossing. See the N742AX flight status page for this flight to view local times or setup timezone preferences in your user account.

Time Position Orientation Groundspeed Altitude Reporting Facility
EDT Latitude Longitude Course Direction KTS MPH feet Rate Location/Type
Tue 04:52:57 PM 25.7890 -80.2880 74° East 155 178 300  Level FlightAware ADS-B
Tue 04:53:27 PM 25.7830 -80.2660 107° East 171 197 1,300 1,500 Climbing FlightAware ADS-B
Tue 04:53:57 PM 25.7680 -80.2410 124° Southeast 208 239 1,800 1,418 Climbing FlightAware ADS-B
Tue 04:54:22 PM 25.7530 -80.2180 126° Southeast 229 264 2,600 2,073 Climbing FlightAware ADS-B
Tue 04:54:52 PM 25.7340 -80.1870 124° Southeast 237 273 3,700 1,964 Climbing FlightAware ADS-B
Tue 04:55:17 PM 25.7230 -80.1580 113° Southeast 257 296 4,400 2,073 Climbing FlightAware ADS-B
Tue 04:55:47 PM 25.7170 -80.1180 99° East 267 307 5,600 2,500 Climbing FlightAware ADS-B
Tue 04:56:17 PM 25.7100 -80.0770 101° East 273 314 6,900 2,509 Climbing FlightAware ADS-B
Tue 04:56:42 PM 25.7050 -80.0410 99° East 284 327 7,900 2,509 Climbing FlightAware ADS-B
Tue 04:57:12 PM 25.6980 -79.9970 100° East 290 334 9,200 2,314 Climbing FlightAware ADS-B
Tue 04:57:52 PM 25.6890 -79.9390 100° East 306 352 10,600 1,500 Climbing FlightAware ADS-B
Tue 04:58:32 PM 25.6770 -79.8720 101° East 350 403 11,200 1,200 Climbing FlightAware ADS-B
Tue 04:59:17 PM 25.6610 -79.7870 102° East 382 440 12,300 1,624 Climbing FlightAware ADS-B
Tue 04:59:57 PM 25.6460 -79.7100 102° East 397 457 13,500 1,835 Climbing FlightAware ADS-B
Tue 05:00:42 PM 25.6290 -79.6210 102° East 409 471 14,900 1,976 Climbing FlightAware ADS-B
Tue 05:01:22 PM 25.6130 -79.5370 102° East 414 476 16,300 1,575 Climbing FlightAware ADS-B
Tue 05:02:02 PM 25.5960 -79.4500 102° East 422 486 17,000 1,341 Climbing FlightAware ADS-B
Tue 05:02:47 PM 25.5770 -79.3550 102° East 426 490 18,200 1,600 Climbing FlightAware ADS-B
Tue 05:03:17 PM 25.5660 -79.2960 102° East 432 497 19,000 1,765 Climbing FlightAware ADS-B
Tue 05:04:12 PM 25.5370 -79.1700 104° East 447 514 20,700 1,326 Climbing FlightAware ADS-B
Tue 05:04:52 PM 25.5080 -79.0940 113° Southeast 450 518 21,100 300 Climbing FlightAware ADS-B
Tue 05:05:32 PM 25.4800 -79.0220 113° Southeast 450 518 21,100  Level FlightAware ADS-B
Tue 05:06:12 PM 25.4530 -78.9490 112° Southeast 450 518 21,100 2,682 Level FlightAware ADS-B
Tue 05:06:57 PM 25.3720 -78.8280 127° Southeast 479 551 24,900 2,894 Climbing FlightAware ADS-B
Tue 05:07:37 PM 25.3330 -78.7480 118° Southeast 480 552 25,200 1,074 Climbing FlightAware ADS-B
Tue 05:08:32 PM 25.2710 -78.6240 119° Southeast 488 562 26,600 884 Climbing FlightAware ADS-B
Tue 05:09:12 PM 25.2350 -78.5490 118° Southeast 488 562 26,600 1,129 Level FlightAware ADS-B
Tue 05:09:57 PM 25.1780 -78.4390 120° Southeast 503 579 28,200 1,129 Climbing FlightAware ADS-B
Tue 05:10:37 PM 25.1390 -78.3630 120° Southeast 503 579 28,200  Level FlightAware ADS-B
Tue 05:11:27 PM 25.0910 -78.2670 119° Southeast 503 579 28,200  Level FlightAware ADS-B
Tue 05:12:07 PM 25.0530 -78.1910 119° Southeast 503 579 28,200  Level FlightAware ADS-B
Tue 05:12:47 PM 25.0150 -78.1150 119° Southeast 503 579 28,200  Level FlightAware ADS-B
Tue 05:13:27 PM 24.9760 -78.0380 119° Southeast 503 579 28,200 3,027 Level FlightAware ADS-B
Tue 05:14:40 PM 24.8339 -77.7931 119° Southeast 508 585 33,900 2,932 Climbing Miami Center
Tue 05:15:40 PM 24.7617 -77.6531 120° Southeast 513 590 34,700 550 Climbing Miami Center
Tue 05:16:40 PM 24.6892 -77.5106 119° Southeast 518 596 35,000 150 Climbing Miami Center
Tue 05:17:40 PM 24.6164 -77.3686 119° Southeast 524 603 35,000  Level Miami Center
Tue 05:18:40 PM 24.5417 -77.2289 120° Southeast 529 609 35,000  Level Miami Center
Tue 05:19:40 PM 24.4731 -77.0894 118° Southeast 529 609 35,000  Level Miami Center
Tue 05:20:40 PM 24.4000 -76.9525 120° Southeast 529 609 35,000  Level Miami Center
Tue 05:21:40 PM 24.3289 -76.8156 120° Southeast 524 603 35,000  Level Miami Center
Tue 05:22:40 PM 24.2536 -76.6789 121° Southeast 524 603 35,000  Level Miami Center
Tue 05:23:40 PM 24.1864 -76.5444 119° Southeast 517 595 35,000  Level Miami Center
Tue 05:24:40 PM 24.1131 -76.4081 120° Southeast 512 589 35,000  Level Miami Center
Tue 05:25:40 PM 24.0414 -76.2694 119° Southeast 512 589 35,000  Level Miami Center
Tue 05:26:40 PM 23.9675 -76.1311 120° Southeast 512 589 35,000  Level Miami Center
Tue 05:27:40 PM 23.8958 -75.9906 119° Southeast 517 595 35,000  Level Miami Center
Tue 05:28:40 PM 23.8239 -75.8525 120° Southeast 522 601 35,000  Level Miami Center
Tue 05:29:40 PM 23.7497 -75.7169 121° Southeast 522 601 35,000  Level Miami Center
Tue 05:30:40 PM 23.6819 -75.5906 120° Southeast 527 606 35,000  Level Miami Center
Tue 05:31:40 PM 23.6075 -75.4531 121° Southeast 527 606 35,000  Level Miami Center
Tue 05:32:40 PM 23.5308 -75.3178 122° Southeast 527 606 35,000  Level Miami Center
Tue 05:33:40 PM 23.4583 -75.1828 120° Southeast 527 606 35,000  Level Miami Center
Tue 05:34:40 PM 23.3836 -75.0481 121° Southeast 527 606 35,000  Level Miami Center
Tue 05:35:40 PM 23.3108 -74.9111 120° Southeast 527 606 35,000  Level Miami Center
Tue 05:36:40 PM 23.2339 -74.7767 122° Southeast 527 606 35,000  Level Miami Center
Tue 05:37:40 PM 23.1608 -74.6400 120° Southeast 527 606 35,000  Level Miami Center
Tue 05:38:40 PM 23.0858 -74.5058 121° Southeast 527 606 35,000  Level Miami Center
Tue 05:39:40 PM 23.0167 -74.3694 119° Southeast 522 601 35,000  Level Miami Center
Tue 05:40:40 PM 22.9578 -74.2261 114° Southeast 512 589 35,000  Level Miami Center
Tue 05:41:40 PM 22.8969 -74.0853 115° Southeast 512 589 35,000  Level Miami Center
Tue 05:42:40 PM 22.8419 -73.9400 112° Southeast 517 595 35,000  Level Miami Center
Tue 05:43:40 PM 22.7764 -73.8019 117° Southeast 517 595 35,000  Level Miami Center
Tue 05:44:40 PM 22.6964 -73.6664 123° Southeast 522 601 35,000  Level Miami Center
Tue 05:45:40 PM 22.6183 -73.5356 123° Southeast 522 601 35,000  Level Miami Center
Tue 05:46:40 PM 22.5422 -73.4006 121° Southeast 522 601 35,000  Level Miami Center
Tue 05:47:40 PM 22.4722 -73.2675 120° Southeast 522 601 35,000  Level Miami Center
Tue 05:48:40 PM 22.3919 -73.1372 124° Southeast 522 601 35,000  Level Miami Center
Tue 05:49:40 PM 22.3133 -73.0025 122° Southeast 522 601 35,000  Level Miami Center
Tue 05:50:40 PM 22.2389 -72.8681 121° Southeast 522 601 35,000  Level Miami Center
Tue 05:51:40 PM 22.1558 -72.7247 122° Southeast 517 595 35,000  Level Miami Center
Tue 05:52:40 PM 22.0769 -72.5931 123° Southeast 517 595 35,000  Level Miami Center
Tue 05:53:40 PM 22.0042 -72.4586 120° Southeast 517 595 35,000  Level Miami Center
Tue 05:54:40 PM 21.9253 -72.3250 122° Southeast 522 601 35,000  Level Miami Center
Tue 05:55:40 PM 21.8483 -72.1933 122° Southeast 528 608 35,000  Level Miami Center
Tue 05:56:40 PM 21.7669 -72.0600 123° Southeast 528 608 35,000  Level Miami Center
Tue 05:57:40 PM 21.6875 -71.9289 123° Southeast 528 608 35,000  Level Miami Center
Tue 05:58:40 PM 21.6103 -71.7956 122° Southeast 528 608 35,000  Level Miami Center
Tue 05:59:40 PM 21.5286 -71.6628 123° Southeast 528 608 35,000  Level Miami Center
Tue 06:00:40 PM 21.4489 -71.5322 123° Southeast 528 608 35,000  Level Miami Center
Tue 06:01:40 PM 21.3761 -71.4147 124° Southeast 534 615 35,000  Level Miami Center
Tue 06:02:40 PM 21.2961 -71.2822 123° Southeast 534 615 35,000  Level Miami Center
Tue 06:03:40 PM 21.2161 -71.1478 123° Southeast 534 615 35,000  Level Miami Center
Tue 06:04:40 PM 21.1361 -71.0133 123° Southeast 534 615 35,000  Level Miami Center
Tue 06:05:40 PM 21.0581 -70.8833 123° Southeast 534 615 35,000  Level Miami Center
Tue 06:06:40 PM 20.9778 -70.7514 123° Southeast 534 615 35,000  Level Miami Center
Tue 06:07:40 PM 20.8975 -70.6219 124° Southeast 534 615 35,000  Level Miami Center
Tue 06:08:40 PM 20.8172 -70.4928 124° Southeast 534 615 35,000  Level Miami Center
Tue 06:09:40 PM 20.7367 -70.3592 123° Southeast 534 615 35,000  Level Miami Center
Tue 06:10:40 PM 20.6583 -70.2300 123° Southeast 534 615 35,000  Level Miami Center
Tue 06:11:40 PM 20.5758 -70.1036 125° Southeast 534 615 35,000  Level Miami Center
Tue 06:12:40 PM 20.4969 -69.9725 123° Southeast 534 615 35,000  Level Miami Center
Tue 06:13:40 PM 20.4164 -69.8439 124° Southeast 528 608 35,000  Level Miami Center
Tue 06:14:40 PM 20.3378 -69.7178 124° Southeast 528 608 35,000  Level Miami Center
Tue 06:15:40 PM 20.2569 -69.5917 124° Southeast 523 602 35,000  Level Miami Center
Tue 06:16:40 PM 20.1800 -69.4633 123° Southeast 518 596 35,000  Level Miami Center
Tue 06:17:40 PM 20.1011 -69.3353 123° Southeast 518 596 35,000  Level Miami Center
Tue 06:18:40 PM 20.0178 -69.2078 125° Southeast 518 596 35,000  Level Miami Center
Tue 06:19:40 PM 19.9389 -69.0822 124° Southeast 518 596 35,000  Level Miami Center
Tue 06:20:40 PM 19.8578 -68.9592 125° Southeast 518 596 35,000  Level Miami Center
Tue 06:21:40 PM 19.7664 -68.8411 129° Southeast 518 596 35,000  Level Miami Center
Tue 06:22:40 PM 19.6808 -68.7164 126° Southeast 518 596 35,000  Level Miami Center
Tue 06:23:35 PM 19.6000 -68.6000 126° Southeast 520 598 35,000  Level San Juan Center
Tue 06:24:36 PM 19.5167 -68.4833 127° Southeast 520 598 35,000  Level San Juan Center
Tue 06:25:36 PM 19.4167 -68.3667 132° Southeast 520 598 35,000  Level San Juan Center
Tue 06:30:57 PM 18.9380 -67.7020 132° Southeast 511 588 35,000  Level FlightAware ADS-B
Tue 06:31:52 PM 18.8510 -67.6200 138° Southeast 511 588 35,000  Level FlightAware ADS-B
Tue 06:32:32 PM 18.7910 -67.5630 138° Southeast 511 588 35,000  Level FlightAware ADS-B
Tue 06:33:12 PM 18.7310 -67.5060 138° Southeast 511 588 35,000  Level FlightAware ADS-B
Tue 06:33:52 PM 18.6720 -67.4490 138° Southeast 511 588 35,000  Level FlightAware ADS-B
Tue 06:34:42 PM 18.5420 -67.3260 138° Southeast 511 588 35,000  Level FlightAware ADS-B
Tue 06:35:22 PM 18.4720 -67.2600 138° Southeast 511 588 35,000  Level FlightAware ADS-B
Tue 06:36:07 PM 18.3900 -67.1820 138° Southeast 512 589 35,000  Level FlightAware ADS-B
Tue 06:36:47 PM 18.3190 -67.1170 139° Southeast 511 588 35,000  Level FlightAware ADS-B
Tue 06:37:27 PM 18.2480 -67.0510 139° Southeast 511 588 35,000  Level FlightAware ADS-B
Tue 06:38:12 PM 18.1710 -66.9780 138° Southeast 511 588 35,000  Level FlightAware ADS-B
Tue 06:38:52 PM 18.1000 -66.9110 138° Southeast 510 587 35,000  Level FlightAware ADS-B
Tue 06:39:32 PM 18.0300 -66.8450 138° Southeast 508 585 35,000  Level FlightAware ADS-B
Tue 06:40:17 PM 17.9500 -66.7700 138° Southeast 505 581 35,000  Level FlightAware ADS-B
Tue 06:40:57 PM 17.8820 -66.7070 139° Southeast 503 579 35,000  Level FlightAware ADS-B
Tue 06:41:42 PM 17.8030 -66.6340 139° Southeast 501 577 35,000  Level FlightAware ADS-B
Tue 06:42:32 PM 17.7210 -66.5570 138° Southeast 500 575 35,000  Level FlightAware ADS-B
Tue 06:43:32 PM 17.6130 -66.4570 139° Southeast 497 572 35,000  Level FlightAware ADS-B
Tue 06:44:12 PM 17.5440 -66.3930 139° Southeast 497 572 35,000  Level FlightAware ADS-B
Tue 06:44:57 PM 17.4750 -66.3280 138° Southeast 497 572 35,000  Level FlightAware ADS-B
Tue 06:45:37 PM 17.4170 -66.2740 138° Southeast 497 572 35,000  Level FlightAware ADS-B
Tue 06:46:17 PM 17.3590 -66.2190 138° Southeast 497 572 35,000  Level FlightAware ADS-B
Tue 06:46:57 PM 17.3010 -66.1640 138° Southeast 497 572 35,000  Level FlightAware ADS-B
Tue 06:47:37 PM 17.2430 -66.1090 138° Southeast 497 572 35,000  Level FlightAware ADS-B
Tue 06:48:27 PM 17.1700 -66.0410 138° Southeast 497 572 35,000  Level FlightAware ADS-B
Tue 06:49:07 PM 17.1120 -65.9860 138° Southeast 497 572 35,000  Level FlightAware ADS-B
Tue 06:49:47 PM 17.0540 -65.9310 138° Southeast 497 572 35,000  Level FlightAware ADS-B
Tue 06:50:27 PM 16.9960 -65.8760 138° Southeast 497 572 35,000  Level FlightAware ADS-B
Tue 06:51:07 PM 16.9380 -65.8220 138° Southeast 497 572 35,000  Level FlightAware ADS-B
Tue 06:51:52 PM 16.7490 -65.6620 141° Southeast 504 580 35,000  Level FlightAware ADS-B
Tue 06:52:32 PM 16.6900 -65.6070 138° Southeast 504 580 35,000  Level FlightAware ADS-B
Tue 06:53:12 PM 16.6310 -65.5520 138° Southeast 504 580 35,000  Level FlightAware ADS-B
Tue 06:54:02 PM 16.5570 -65.4820 138° Southeast 504 580 35,000  Level FlightAware ADS-B
Tue 06:54:42 PM 16.4980 -65.4270 138° Southeast 504 580 35,000  Level FlightAware ADS-B
Tue 06:55:22 PM 16.4400 -65.3720 138° Southeast 504 580 35,000  Level FlightAware ADS-B
Tue 06:56:02 PM 16.3810 -65.3160 138° Southeast 504 580 35,000  Level FlightAware ADS-B
Tue 06:56:52 PM 16.3070 -65.2470 138° Southeast 504 580 35,000  Level FlightAware ADS-B
Tue 06:57:32 PM 16.2480 -65.1920 138° Southeast 504 580 35,000  Level FlightAware ADS-B
Tue 06:58:12 PM 16.1890 -65.1370 138° Southeast 504 580 35,000  Level FlightAware ADS-B
Tue 06:58:52 PM 16.1300 -65.0820 138° Southeast 504 580 35,000  Level FlightAware ADS-B
Tue 06:59:32 PM 16.0710 -65.0260 138° Southeast 504 580 35,000  Level FlightAware ADS-B
Tue 07:00:22 PM 15.9980 -64.9570 138° Southeast 504 580 35,000  Level FlightAware ADS-B
Tue 07:01:02 PM 15.9390 -64.9020 138° Southeast 504 580 35,000  Level FlightAware ADS-B
Tue 07:01:47 PM 15.6833 -64.7167 138° Southeast 510 587 35,000  Level San Juan Center
Tue 07:07:47 PM 15.1160 -64.2070 138° Southeast 495 570 35,000  Level FlightAware ADS-B
Tue 07:08:32 PM 14.9850 -64.1030 143° Southeast 491 565 35,000  Level FlightAware ADS-B
Tue 07:09:12 PM 14.9060 -64.0590 152° Southeast 487 560 35,000  Level FlightAware ADS-B
Tue 07:09:52 PM 14.8230 -64.0110 151° Southeast 493 567 35,000  Level FlightAware ADS-B
Tue 07:10:37 PM 14.7390 -63.9610 150° Southeast 498 573 35,000  Level FlightAware ADS-B
Tue 07:11:17 PM 14.6520 -63.9110 151° Southeast 506 582 35,000  Level FlightAware ADS-B
Tue 07:12:02 PM 14.5620 -63.8580 150° Southeast 508 585 35,000  Level FlightAware ADS-B
Tue 07:12:42 PM 14.4810 -63.8110 151° Southeast 508 585 35,000  Level FlightAware ADS-B
Tue 07:13:22 PM 14.3950 -63.7610 151° Southeast 507 583 35,000  Level FlightAware ADS-B
Tue 07:14:07 PM 14.3050 -63.7090 151° Southeast 506 582 35,000  Level FlightAware ADS-B
Tue 07:14:47 PM 14.2230 -63.6610 150° Southeast 505 581 35,000  Level FlightAware ADS-B
Tue 07:15:27 PM 14.1440 -63.6160 151° Southeast 504 580 35,000  Level FlightAware ADS-B
Tue 07:16:12 PM 14.0520 -63.5620 150° Southeast 505 581 35,000  Level FlightAware ADS-B
Tue 07:16:52 PM 13.9660 -63.5130 151° Southeast 504 580 35,000  Level FlightAware ADS-B
Tue 07:17:37 PM 13.8740 -63.4600 151° Southeast 503 579 35,000  Level FlightAware ADS-B
Tue 07:18:17 PM 13.7950 -63.4150 151° Southeast 503 579 35,000  Level FlightAware ADS-B
Tue 07:18:57 PM 13.7110 -63.3660 150° Southeast 505 581 35,000  Level FlightAware ADS-B
Tue 07:19:42 PM 13.6240 -63.3160 151° Southeast 509 586 35,000  Level FlightAware ADS-B
Tue 07:20:17 PM 13.5540 -63.2740 150° Southeast 509 586 35,000  Level FlightAware ADS-B
Tue 07:21:07 PM 13.4670 -63.2230 150° Southeast 509 586 35,000  Level FlightAware ADS-B
Tue 07:21:12 PM 13.6040 -63.3040 330° Northwest 35,000  Level FlightAware ADS-B
Tue 07:21:32 PM 13.4310 -63.2050 151° Southeast 511 588 35,000  Level FlightAware ADS-B
Tue 07:22:27 PM 13.2860 -63.1200 150° Southeast 511 588 35,000  Level FlightAware ADS-B
Tue 07:23:12 PM 13.1840 -63.0620 151° Southeast 511 588 35,000  Level FlightAware ADS-B
Tue 07:23:52 PM 13.1140 -63.0200 150° Southeast 511 588 35,000  Level FlightAware ADS-B
Tue 07:24:37 PM 13.0120 -62.9630 151° Southeast 513 590 35,000  Level FlightAware ADS-B
Tue 07:25:17 PM 12.9260 -62.9140 151° Southeast 514 592 35,000 -600 Level FlightAware ADS-B
Tue 07:25:57 PM 12.8510 -62.8700 150° Southeast 520 598 34,200 -1,467 Descending FlightAware ADS-B
Tue 07:26:47 PM 12.7390 -62.8060 151° Southeast 509 586 32,800 -1,694 Descending FlightAware ADS-B
Tue 07:27:22 PM 12.6670 -62.7650 151° Southeast 500 575 31,800 -1,650 Descending FlightAware ADS-B
Tue 07:28:07 PM 12.5790 -62.7150 151° Southeast 483 556 30,600 -1,533 Descending FlightAware ADS-B
Tue 07:28:52 PM 12.4930 -62.6660 151° Southeast 486 559 29,500 -1,553 Descending FlightAware ADS-B
Tue 07:29:32 PM 12.4180 -62.6230 151° Southeast 471 542 28,400 -1,200 Descending FlightAware ADS-B
Tue 07:30:27 PM 12.3130 -62.5620 150° Southeast 459 528 27,600 -1,584 Descending FlightAware ADS-B
Tue 07:31:07 PM 12.3580 -62.5890 330° Northwest 25,900 -2,143 Descending FlightAware ADS-B
Tue 07:31:37 PM 12.2230 -62.5120 151° Southeast 430 495 25,100 -1,629 Descending FlightAware ADS-B
Tue 07:32:17 PM 12.2230 -62.5120 151° Southeast 430 495 24,000 -1,129 Descending FlightAware ADS-B
Tue 07:33:02 PM 12.0420 -62.4080 151° Southeast 421 484 23,500 -353 Descending FlightAware ADS-B
Tue 07:33:42 PM 11.9850 -62.3740 150° Southeast 421 484 23,500  Level FlightAware ADS-B
Tue 07:34:22 PM 11.9270 -62.3400 150° Southeast 421 484 23,500  Level FlightAware ADS-B
Tue 07:35:02 PM 11.8700 -62.3060 150° Southeast 421 484 23,500  Level FlightAware ADS-B
Tue 07:35:52 PM 11.7980 -62.2640 150° Southeast 421 484 23,500  Level FlightAware ADS-B
Tue 07:36:32 PM 11.7410 -62.2300 150° Southeast 421 484 23,500  Level FlightAware ADS-B
Tue 07:39:00 PM 11.4840 -62.0289 148° Southeast  Level Estimated
Tue 07:40:00 PM 11.3960 -61.9295 132° Southeast  Level FlightAware Approximate
Tue 07:41:00 PM 11.3081 -61.8301 132° Southeast  Level FlightAware Approximate
Tue 07:42:00 PM 11.1995 -61.7548 144° Southeast  Level Estimated
Tue 07:43:00 PM 11.0909 -61.6796 148° Southeast  Level Estimated
Tue 07:44:00 PM 10.9877 -61.5969 142° Southeast  Level FlightAware Approximate
Tue 07:45:00 PM 10.8777 -61.5240 151° Southeast  Level Estimated
Tue 07:46:00 PM 10.7676 -61.4511 136° Southeast  Level Estimated
Tue 07:47:00 PM 10.6518 -61.3759 154° Southeast  Level FlightAware Approximate
Tue 07:48:00 PM 10.6000 -61.3500 154° Southeast  Level FlightAware Approximate
Tue 07:49:00 PM 10.5954 -61.3372 154° Southeast  Level Estimated
Tue 07:50:00 PM 10.5954 -61.3372 154° Southeast  Level Estimated
Tue 07:51:00 PM 10.5954 -61.3372 154° Southeast  Level Estimated
Tue 07:52:00 PM 10.5954 -61.3372 154° Southeast  Level Estimated
Tue 07:53:00 PM 10.5954 -61.3372 154° Southeast  Level Estimated
Tue 07:54:00 PM 10.5954 -61.3372 154° Southeast  Level Estimated
Tue 07:55:00 PM 10.5954 -61.3372 154° Southeast  Level Estimated
Tue 07:56:00 PM 10.5954 -61.3372 154° Southeast  Level Estimated
Tue 07:57:00 PM 10.5954 -61.3372 154° Southeast  Level Estimated
Tue 07:58:00 PM 10.5954 -61.3372 154° Southeast  Level Estimated
Tue 07:59:00 PM 10.5954 -61.3372 154° Southeast  Level Estimated
Tue 08:00:00 PM 10.5954 -61.3372 154° Southeast  Level Estimated
Tue 08:01:00 PM 10.5954 -61.3372 154° Southeast  Level Estimated
Tue 08:02:00 PM 10.5954 -61.3372 154° Southeast  Level Estimated
Tue 08:03:00 PM 10.5954 -61.3372 154° Southeast  Level Estimated
Tue 08:04:00 PM 10.5954 -61.3372 154° Southeast  Level Estimated
Tue 08:05:00 PM 10.5954 -61.3372 154° Southeast  Level Estimated
Tue 08:06:00 PM 10.5954 -61.3372 154° Southeast  Level Estimated
Tue 08:07:00 PM 10.5954 -61.3372 154° Southeast  Level Estimated
Tue 08:08:00 PM 10.5954 -61.3372 154° Southeast  Level Estimated
Tue 08:09:00 PM 10.5954 -61.3372 154° Southeast  Level Estimated
Tue 08:10:00 PM 10.5954 -61.3372 154° Southeast  Level Estimated
Tue 08:11:00 PM 10.5954 -61.3372 154° Southeast  Level Estimated

Login

Don't have an account? Register now (free) for customized features, flight alerts, and more!